Cominto, Arkansas
Current Conditions -  °F | °C
As of 3:53 PM on Monday 22 Dec 2014 (Local Time) from KLLQ Reporting Station
Overcast Overcast  
Wind Chill: 59°   Ceiling: 800
Heat Index: 59°   Visibility: 10mi
Dew Point: 56°   Wind: 5mph
Humidity: 90%   Direction: 180°S
Pressure: 29.59"   Gusts: NA
Location:  33.5819°N, 91.7907°W
Report Text: KLLQ 222153Z AUTO 18004KT 10SM OVC008 15/13 A2959 RMK AO2 RAE02 CIG 006V011 SLP019 P0000 T01500133
Loading
Personal Weather Stations






























Interactive Weather Map New forecast layout! Learn more

10-Day Weather Forecast

Advertisements
Track Severe Weather on mobile